sensor_id;sensor_type;location;lat;lon;timestamp;pressure;altitude;pressure_sealevel;temperature;humidity
72560;BME280;62987;52.382;9.752;2023-12-20T00:01:56;100443.00;;;10.83;100.00
72560;BME280;62987;52.382;9.752;2023-12-20T00:04:25;100442.97;;;10.46;100.00
72560;BME280;62987;52.382;9.752;2023-12-20T00:06:53;100446.00;;;10.18;100.00
72560;BME280;62987;52.382;9.752;2023-12-20T00:09:22;100448.06;;;10.12;100.00
72560;BME280;62987;52.382;9.752;2023-12-20T00:11:50;100449.94;;;10.10;100.00
72560;BME280;62987;52.382;9.752;2023-12-20T00:14:18;100461.38;;;9.91;100.00
72560;BME280;62987;52.382;9.752;2023-12-20T00:16:48;100454.44;;;9.87;100.00
72560;BME280;62987;52.382;9.752;2023-12-20T00:19:16;100456.28;;;9.85;100.00
72560;BME280;62987;52.382;9.752;2023-12-20T00:21:45;100459.16;;;9.81;100.00
72560;BME280;62987;52.382;9.752;2023-12-20T00:24:13;100461.09;;;9.97;100.00
72560;BME280;62987;52.382;9.752;2023-12-20T00:26:42;100465.06;;;9.87;100.00
72560;BME280;62987;52.382;9.752;2023-12-20T00:29:10;100468.00;;;9.81;100.00
72560;BME280;62987;52.382;9.752;2023-12-20T00:31:39;100464.94;;;9.70;100.00
72560;BME280;62987;52.382;9.752;2023-12-20T00:34:08;100488.69;;;9.73;100.00
72560;BME280;62987;52.382;9.752;2023-12-20T00:36:37;100481.06;;;9.66;100.00
72560;BME280;62987;52.382;9.752;2023-12-20T00:39:05;100489.34;;;9.58;100.00
72560;BME280;62987;52.382;9.752;2023-12-20T00:41:34;100472.91;;;9.70;100.00
72560;BME280;62987;52.382;9.752;2023-12-20T00:44:02;100478.31;;;9.67;100.00
72560;BME280;62987;52.382;9.752;2023-12-20T00:46:31;100486.84;;;9.75;100.00
72560;BME280;62987;52.382;9.752;2023-12-20T00:48:59;100485.94;;;9.96;100.00
72560;BME280;62987;52.382;9.752;2023-12-20T00:51:29;100486.28;;;9.67;100.00
72560;BME280;62987;52.382;9.752;2023-12-20T00:53:58;100475.94;;;9.61;100.00
72560;BME280;62987;52.382;9.752;2023-12-20T00:56:26;100482.31;;;9.57;100.00
72560;BME280;62987;52.382;9.752;2023-12-20T00:58:54;100485.38;;;9.68;100.00
72560;BME280;62987;52.382;9.752;2023-12-20T01:01:22;100481.25;;;9.61;100.00
72560;BME280;62987;52.382;9.752;2023-12-20T01:03:51;100472.50;;;9.59;100.00
72560;BME280;62987;52.382;9.752;2023-12-20T01:06:20;100472.72;;;9.53;100.00
72560;BME280;62987;52.382;9.752;2023-12-20T01:08:49;100477.72;;;9.60;100.00
72560;BME280;62987;52.382;9.752;2023-12-20T01:11:18;100476.38;;;9.50;100.00
72560;BME280;62987;52.382;9.752;2023-12-20T01:13:46;100474.53;;;9.52;100.00
72560;BME280;62987;52.382;9.752;2023-12-20T01:16:14;100482.91;;;9.63;100.00
72560;BME280;62987;52.382;9.752;2023-12-20T01:18:43;100471.19;;;9.47;100.00
72560;BME280;62987;52.382;9.752;2023-12-20T01:21:12;100474.53;;;9.52;100.00
72560;BME280;62987;52.382;9.752;2023-12-20T01:23:40;100473.59;;;9.53;100.00
72560;BME280;62987;52.382;9.752;2023-12-20T01:26:10;100464.53;;;9.59;100.00
72560;BME280;62987;52.382;9.752;2023-12-20T01:28:39;100465.97;;;9.46;100.00
72560;BME280;62987;52.382;9.752;2023-12-20T01:31:08;100480.28;;;9.42;100.00
72560;BME280;62987;52.382;9.752;2023-12-20T01:33:36;100476.25;;;9.53;100.00
72560;BME280;62987;52.382;9.752;2023-12-20T01:36:05;100483.63;;;9.67;100.00
72560;BME280;62987;52.382;9.752;2023-12-20T01:38:34;100475.91;;;9.83;100.00
72560;BME280;62987;52.382;9.752;2023-12-20T01:41:02;100477.50;;;9.23;100.00
72560;BME280;62987;52.382;9.752;2023-12-20T01:43:32;100482.56;;;9.29;100.00
72560;BME280;62987;52.382;9.752;2023-12-20T01:46:16;100485.47;;;9.45;100.00
72560;BME280;62987;52.382;9.752;2023-12-20T01:48:45;100475.28;;;9.34;100.00
72560;BME280;62987;52.382;9.752;2023-12-20T01:51:14;100484.03;;;9.36;100.00
72560;BME280;62987;52.382;9.752;2023-12-20T01:53:42;100487.81;;;9.31;100.00
72560;BME280;62987;52.382;9.752;2023-12-20T01:56:12;100480.53;;;9.36;100.00
72560;BME280;62987;52.382;9.752;2023-12-20T01:58:44;100491.94;;;9.16;100.00
72560;BME280;62987;52.382;9.752;2023-12-20T02:01:13;100480.47;;;9.15;100.00
72560;BME280;62987;52.382;9.752;2023-12-20T02:03:41;100486.09;;;8.85;100.00
72560;BME280;62987;52.382;9.752;2023-12-20T02:06:10;100487.75;;;9.10;100.00
72560;BME280;62987;52.382;9.752;2023-12-20T02:08:39;100490.81;;;9.00;100.00
72560;BME280;62987;52.382;9.752;2023-12-20T02:11:07;100490.34;;;9.12;100.00
72560;BME280;62987;52.382;9.752;2023-12-20T02:13:35;100480.50;;;9.14;100.00
72560;BME280;62987;52.382;9.752;2023-12-20T02:16:05;100466.28;;;9.16;100.00
72560;BME280;62987;52.382;9.752;2023-12-20T02:18:34;100474.53;;;8.87;100.00
72560;BME280;62987;52.382;9.752;2023-12-20T02:21:04;100466.94;;;9.21;100.00
72560;BME280;62987;52.382;9.752;2023-12-20T02:23:34;100461.72;;;9.20;100.00
72560;BME280;62987;52.382;9.752;2023-12-20T02:26:03;100456.63;;;8.92;100.00
72560;BME280;62987;52.382;9.752;2023-12-20T02:28:32;100445.44;;;9.07;100.00
72560;BME280;62987;52.382;9.752;2023-12-20T02:31:00;100451.34;;;8.92;100.00
72560;BME280;62987;52.382;9.752;2023-12-20T02:33:28;100461.34;;;9.07;100.00
72560;BME280;62987;52.382;9.752;2023-12-20T02:35:57;100454.34;;;8.83;100.00
72560;BME280;62987;52.382;9.752;2023-12-20T02:38:25;100451.34;;;8.92;100.00
72560;BME280;62987;52.382;9.752;2023-12-20T02:40:55;100450.50;;;9.13;100.00
72560;BME280;62987;52.382;9.752;2023-12-20T02:43:23;100446.34;;;9.06;100.00
72560;BME280;62987;52.382;9.752;2023-12-20T02:45:52;100455.34;;;8.57;100.00
72560;BME280;62987;52.382;9.752;2023-12-20T02:48:20;100462.81;;;8.93;100.00
72560;BME280;62987;52.382;9.752;2023-12-20T02:50:48;100457.03;;;9.05;100.00
72560;BME280;62987;52.382;9.752;2023-12-20T02:53:17;100459.06;;;8.98;100.00
72560;BME280;62987;52.382;9.752;2023-12-20T02:55:45;100447.97;;;8.65;100.00
72560;BME280;62987;52.382;9.752;2023-12-20T02:58:15;100443.75;;;8.60;100.00
72560;BME280;62987;52.382;9.752;2023-12-20T03:00:45;100435.06;;;8.33;100.00
72560;BME280;62987;52.382;9.752;2023-12-20T03:03:13;100441.00;;;8.39;100.00
72560;BME280;62987;52.382;9.752;2023-12-20T03:05:41;100436.84;;;8.56;100.00
72560;BME280;62987;52.382;9.752;2023-12-20T03:08:10;100444.22;;;8.71;100.00
72560;BME280;62987;52.382;9.752;2023-12-20T03:10:38;100437.84;;;8.53;100.00
72560;BME280;62987;52.382;9.752;2023-12-20T03:13:06;100429.59;;;8.61;100.00
72560;BME280;62987;52.382;9.752;2023-12-20T03:15:36;100422.59;;;8.58;100.00
72560;BME280;62987;52.382;9.752;2023-12-20T03:18:05;100423.53;;;8.57;100.00
72560;BME280;62987;52.382;9.752;2023-12-20T03:20:33;100421.88;;;8.31;100.00
72560;BME280;62987;52.382;9.752;2023-12-20T03:23:02;100420.31;;;8.49;100.00
72560;BME280;62987;52.382;9.752;2023-12-20T03:25:34;100362.41;;;8.38;100.00
72560;BME280;62987;52.382;9.752;2023-12-20T03:28:02;100404.78;;;8.15;100.00
72560;BME280;62987;52.382;9.752;2023-12-20T03:30:31;100399.00;;;8.52;100.00
72560;BME280;62987;52.382;9.752;2023-12-20T03:33:01;100391.38;;;8.43;100.00
72560;BME280;62987;52.382;9.752;2023-12-20T03:35:29;100391.81;;;8.32;100.00
72560;BME280;62987;52.382;9.752;2023-12-20T03:37:58;100393.19;;;8.43;100.00
72560;BME280;62987;52.382;9.752;2023-12-20T03:40:27;100392.25;;;8.43;100.00
72560;BME280;62987;52.382;9.752;2023-12-20T03:42:55;100387.56;;;8.73;100.00
72560;BME280;62987;52.382;9.752;2023-12-20T03:45:24;100385.41;;;8.61;100.00
72560;BME280;62987;52.382;9.752;2023-12-20T03:47:52;100391.31;;;8.21;100.00
72560;BME280;62987;52.382;9.752;2023-12-20T03:50:24;100391.50;;;8.85;100.00
72560;BME280;62987;52.382;9.752;2023-12-20T03:52:53;100385.63;;;8.55;100.00
72560;BME280;62987;52.382;9.752;2023-12-20T03:55:21;100380.00;;;8.63;100.00
72560;BME280;62987;52.382;9.752;2023-12-20T03:57:49;100381.31;;;8.29;100.00
72560;BME280;62987;52.382;9.752;2023-12-20T04:00:18;100379.13;;;8.40;100.00
72560;BME280;62987;52.382;9.752;2023-12-20T04:02:46;100386.38;;;8.59;100.00
72560;BME280;62987;52.382;9.752;2023-12-20T04:05:15;100378.25;;;8.40;100.00
72560;BME280;62987;52.382;9.752;2023-12-20T04:07:45;100391.75;;;8.34;100.00
72560;BME280;62987;52.382;9.752;2023-12-20T04:10:13;100384.06;;;8.50;100.00
72560;BME280;62987;52.382;9.752;2023-12-20T04:12:42;100378.50;;;8.56;100.00
72560;BME280;62987;52.382;9.752;2023-12-20T04:15:10;100383.28;;;8.48;100.00
72560;BME280;62987;52.382;9.752;2023-12-20T04:17:39;100377.50;;;8.36;100.00
72560;BME280;62987;52.382;9.752;2023-12-20T04:20:08;100375.81;;;8.35;100.00
72560;BME280;62987;52.382;9.752;2023-12-20T04:22:36;100377.63;;;8.33;100.00
72560;BME280;62987;52.382;9.752;2023-12-20T04:25:07;100387.91;;;8.43;100.00
72560;BME280;62987;52.382;9.752;2023-12-20T04:27:35;100378.19;;;8.18;100.00
72560;BME280;62987;52.382;9.752;2023-12-20T04:30:05;100373.97;;;8.59;100.00
72560;BME280;62987;52.382;9.752;2023-12-20T04:32:34;100365.22;;;8.35;100.00
72560;BME280;62987;52.382;9.752;2023-12-20T04:35:03;100363.47;;;8.34;100.00
72560;BME280;62987;52.382;9.752;2023-12-20T04:37:32;100366.69;;;8.64;100.00
72560;BME280;62987;52.382;9.752;2023-12-20T04:40:01;100360.09;;;8.53;100.00
72560;BME280;62987;52.382;9.752;2023-12-20T04:42:31;100351.28;;;8.52;100.00
72560;BME280;62987;52.382;9.752;2023-12-20T04:45:00;100352.91;;;8.78;100.00
72560;BME280;62987;52.382;9.752;2023-12-20T04:47:28;100358.94;;;8.60;100.00
72560;BME280;62987;52.382;9.752;2023-12-20T04:49:56;100356.88;;;8.88;100.00
72560;BME280;62987;52.382;9.752;2023-12-20T04:52:25;100353.88;;;8.54;100.00
72560;BME280;62987;52.382;9.752;2023-12-20T04:54:54;100359.91;;;8.57;100.00
72560;BME280;62987;52.382;9.752;2023-12-20T04:57:22;100357.09;;;8.62;100.00
72560;BME280;62987;52.382;9.752;2023-12-20T04:59:52;100349.97;;;8.40;100.00
72560;BME280;62987;52.382;9.752;2023-12-20T05:02:20;100364.13;;;8.85;100.00
72560;BME280;62987;52.382;9.752;2023-12-20T05:04:48;100370.78;;;8.73;100.00
72560;BME280;62987;52.382;9.752;2023-12-20T05:07:20;100355.44;;;8.81;100.00
72560;BME280;62987;52.382;9.752;2023-12-20T05:09:48;100349.38;;;8.56;100.00
72560;BME280;62987;52.382;9.752;2023-12-20T05:12:16;100332.41;;;8.81;100.00
72560;BME280;62987;52.382;9.752;2023-12-20T05:14:45;100334.00;;;9.07;100.00
72560;BME280;62987;52.382;9.752;2023-12-20T05:17:16;100341.41;;;8.99;100.00
72560;BME280;62987;52.382;9.752;2023-12-20T05:19:44;100350.59;;;8.91;100.00
72560;BME280;62987;52.382;9.752;2023-12-20T05:22:13;100347.59;;;9.00;100.00
72560;BME280;62987;52.382;9.752;2023-12-20T05:24:41;100358.06;;;8.59;100.00
72560;BME280;62987;52.382;9.752;2023-12-20T05:27:09;100353.25;;;9.12;100.00
72560;BME280;62987;52.382;9.752;2023-12-20T05:29:38;100358.75;;;8.86;100.00
72560;BME280;62987;52.382;9.752;2023-12-20T05:32:06;100355.97;;;9.11;100.00
72560;BME280;62987;52.382;9.752;2023-12-20T05:34:36;100346.59;;;8.59;100.00
72560;BME280;62987;52.382;9.752;2023-12-20T05:37:05;100342.91;;;8.85;100.00
72560;BME280;62987;52.382;9.752;2023-12-20T05:39:33;100342.97;;;8.83;100.00
72560;BME280;62987;52.382;9.752;2023-12-20T05:42:01;100350.44;;;8.73;100.00
72560;BME280;62987;52.382;9.752;2023-12-20T05:44:30;100348.41;;;8.80;100.00
72560;BME280;62987;52.382;9.752;2023-12-20T05:46:58;100352.78;;;8.81;100.00
72560;BME280;62987;52.382;9.752;2023-12-20T05:49:26;100350.50;;;9.14;100.00
72560;BME280;62987;52.382;9.752;2023-12-20T05:51:56;100362.69;;;8.76;100.00
72560;BME280;62987;52.382;9.752;2023-12-20T05:54:24;100353.63;;;9.03;100.00
72560;BME280;62987;52.382;9.752;2023-12-20T05:56:53;100351.16;;;8.77;100.00
72560;BME280;62987;52.382;9.752;2023-12-20T05:59:21;100343.53;;;8.91;100.00
72560;BME280;62987;52.382;9.752;2023-12-20T06:01:49;100337.34;;;8.91;100.00
72560;BME280;62987;52.382;9.752;2023-12-20T06:04:17;100351.03;;;8.58;100.00
72560;BME280;62987;52.382;9.752;2023-12-20T06:06:49;100344.75;;;8.82;100.00
72560;BME280;62987;52.382;9.752;2023-12-20T06:09:19;100360.75;;;9.01;100.00
72560;BME280;62987;52.382;9.752;2023-12-20T06:11:47;100336.91;;;9.01;100.00
72560;BME280;62987;52.382;9.752;2023-12-20T06:14:15;100341.94;;;8.87;100.00
72560;BME280;62987;52.382;9.752;2023-12-20T06:16:45;100345.97;;;8.96;100.00
72560;BME280;62987;52.382;9.752;2023-12-20T06:19:13;100350.75;;;8.88;100.00
72560;BME280;62987;52.382;9.752;2023-12-20T06:21:42;100355.97;;;8.89;100.00
72560;BME280;62987;52.382;9.752;2023-12-20T06:24:11;100345.94;;;9.17;100.00
72560;BME280;62987;52.382;9.752;2023-12-20T06:26:41;100354.16;;;9.11;100.00
72560;BME280;62987;52.382;9.752;2023-12-20T06:29:09;100335.38;;;8.96;100.00
72560;BME280;62987;52.382;9.752;2023-12-20T06:31:37;100340.66;;;9.17;100.00
72560;BME280;62987;52.382;9.752;2023-12-20T06:34:06;100332.88;;;9.13;100.00
72560;BME280;62987;52.382;9.752;2023-12-20T06:36:34;100343.78;;;8.85;100.00
72560;BME280;62987;52.382;9.752;2023-12-20T06:39:03;100350.59;;;9.12;100.00
72560;BME280;62987;52.382;9.752;2023-12-20T06:41:31;100329.03;;;9.00;100.00
72560;BME280;62987;52.382;9.752;2023-12-20T06:44:01;100337.13;;;9.17;100.00
72560;BME280;62987;52.382;9.752;2023-12-20T06:46:32;100327.34;;;8.97;100.00
72560;BME280;62987;52.382;9.752;2023-12-20T06:49:22;100310.84;;;8.69;100.00
72560;BME280;62987;52.382;9.752;2023-12-20T06:52:06;100327.59;;;8.91;100.00
72560;BME280;62987;52.382;9.752;2023-12-20T06:54:47;100317.88;;;8.70;100.00
72560;BME280;62987;52.382;9.752;2023-12-20T06:57:16;100338.28;;;8.68;100.00
72560;BME280;62987;52.382;9.752;2023-12-20T06:59:54;100309.84;;;8.50;100.00
72560;BME280;62987;52.382;9.752;2023-12-20T07:02:28;100318.50;;;8.55;100.00
72560;BME280;62987;52.382;9.752;2023-12-20T07:04:57;100336.88;;;8.59;100.00
72560;BME280;62987;52.382;9.752;2023-12-20T07:07:33;100330.44;;;8.65;100.00
72560;BME280;62987;52.382;9.752;2023-12-20T07:10:16;100329.22;;;8.52;100.00
72560;BME280;62987;52.382;9.752;2023-12-20T07:12:45;100337.97;;;8.54;100.00
72560;BME280;62987;52.382;9.752;2023-12-20T07:15:21;100327.97;;;8.38;100.00
72560;BME280;62987;52.382;9.752;2023-12-20T07:17:53;100323.81;;;8.55;100.00
72560;BME280;62987;52.382;9.752;2023-12-20T07:20:21;100320.44;;;8.50;100.00
72560;BME280;62987;52.382;9.752;2023-12-20T07:22:50;100310.00;;;8.47;100.00
72560;BME280;62987;52.382;9.752;2023-12-20T07:25:18;100304.31;;;8.56;100.00
72560;BME280;62987;52.382;9.752;2023-12-20T07:27:47;100328.50;;;8.48;100.00
72560;BME280;62987;52.382;9.752;2023-12-20T07:30:17;100316.22;;;8.67;100.00
72560;BME280;62987;52.382;9.752;2023-12-20T07:32:47;100325.41;;;8.80;100.00
72560;BME280;62987;52.382;9.752;2023-12-20T07:35:15;100330.50;;;8.85;100.00
72560;BME280;62987;52.382;9.752;2023-12-20T07:37:47;100318.84;;;8.89;100.00
72560;BME280;62987;52.382;9.752;2023-12-20T07:40:16;100327.09;;;8.81;100.00
72560;BME280;62987;52.382;9.752;2023-12-20T07:42:45;100335.41;;;8.74;100.00
72560;BME280;62987;52.382;9.752;2023-12-20T07:45:15;100325.28;;;8.62;100.00
72560;BME280;62987;52.382;9.752;2023-12-20T07:47:44;100335.56;;;8.69;100.00
72560;BME280;62987;52.382;9.752;2023-12-20T07:50:37;100319.59;;;8.93;100.00
72560;BME280;62987;52.382;9.752;2023-12-20T07:54:13;100304.63;;;8.70;100.00
72560;BME280;62987;52.382;9.752;2023-12-20T07:56:57;100338.22;;;8.91;100.00
72560;BME280;62987;52.382;9.752;2023-12-20T07:59:28;100313.06;;;8.58;100.00
72560;BME280;62987;52.382;9.752;2023-12-20T08:01:59;100316.09;;;8.49;100.00
72560;BME280;62987;52.382;9.752;2023-12-20T08:04:28;100318.06;;;8.20;100.00
72560;BME280;62987;52.382;9.752;2023-12-20T08:07:00;100307.09;;;8.53;100.00
72560;BME280;62987;52.382;9.752;2023-12-20T08:09:29;100319.72;;;8.90;100.00
72560;BME280;62987;52.382;9.752;2023-12-20T08:12:19;100319.09;;;8.83;100.00
72560;BME280;62987;52.382;9.752;2023-12-20T08:14:48;100312.97;;;8.61;100.00
72560;BME280;62987;52.382;9.752;2023-12-20T08:17:16;100319.28;;;8.57;100.00
72560;BME280;62987;52.382;9.752;2023-12-20T08:19:46;100304.03;;;9.05;100.00
72560;BME280;62987;52.382;9.752;2023-12-20T08:22:15;100299.66;;;9.04;100.00
72560;BME280;62987;52.382;9.752;2023-12-20T08:24:44;100305.16;;;9.00;100.00
72560;BME280;62987;52.382;9.752;2023-12-20T08:27:13;100312.94;;;8.82;100.00
72560;BME280;62987;52.382;9.752;2023-12-20T08:29:45;100299.94;;;9.18;100.00
72560;BME280;62987;52.382;9.752;2023-12-20T08:32:14;100291.28;;;9.34;100.00
72560;BME280;62987;52.382;9.752;2023-12-20T08:34:42;100294.34;;;9.25;100.00
72560;BME280;62987;52.382;9.752;2023-12-20T08:37:11;100290.47;;;8.91;100.00
72560;BME280;62987;52.382;9.752;2023-12-20T08:39:40;100288.19;;;9.24;100.00
72560;BME280;62987;52.382;9.752;2023-12-20T08:42:12;100285.25;;;9.10;100.00
72560;BME280;62987;52.382;9.752;2023-12-20T08:44:40;100283.41;;;9.32;100.00
72560;BME280;62987;52.382;9.752;2023-12-20T08:47:10;100277.25;;;9.71;100.00
72560;BME280;62987;52.382;9.752;2023-12-20T08:49:40;100273.44;;;9.57;100.00
72560;BME280;62987;52.382;9.752;2023-12-20T08:52:08;100271.09;;;9.70;100.00
72560;BME280;62987;52.382;9.752;2023-12-20T08:54:37;100269.34;;;9.69;100.00
72560;BME280;62987;52.382;9.752;2023-12-20T08:57:05;100261.91;;;9.77;100.00
72560;BME280;62987;52.382;9.752;2023-12-20T08:59:34;100262.66;;;9.60;100.00
72560;BME280;62987;52.382;9.752;2023-12-20T09:02:02;100269.53;;;9.26;100.00
72560;BME280;62987;52.382;9.752;2023-12-20T09:04:32;100258.66;;;9.52;100.00
72560;BME280;62987;52.382;9.752;2023-12-20T09:07:01;100255.13;;;9.51;100.00
72560;BME280;62987;52.382;9.752;2023-12-20T09:09:30;100239.66;;;9.41;100.00
72560;BME280;62987;52.382;9.752;2023-12-20T09:11:59;100241.69;;;9.54;100.00
72560;BME280;62987;52.382;9.752;2023-12-20T09:14:28;100246.59;;;9.25;100.00
72560;BME280;62987;52.382;9.752;2023-12-20T09:16:57;100228.38;;;9.36;100.00
72560;BME280;62987;52.382;9.752;2023-12-20T09:19:25;100227.81;;;8.89;100.00
72560;BME280;62987;52.382;9.752;2023-12-20T09:21:55;100228.38;;;9.36;100.00
72560;BME280;62987;52.382;9.752;2023-12-20T09:24:24;100221.22;;;9.38;100.00
72560;BME280;62987;52.382;9.752;2023-12-20T09:26:56;100237.19;;;9.75;100.00
72560;BME280;62987;52.382;9.752;2023-12-20T09:29:24;100222.09;;;9.38;100.00
72560;BME280;62987;52.382;9.752;2023-12-20T09:31:52;100218.63;;;9.36;100.00
72560;BME280;62987;52.382;9.752;2023-12-20T09:34:21;100223.69;;;9.22;100.00
72560;BME280;62987;52.382;9.752;2023-12-20T09:36:49;100221.69;;;9.66;100.00
72560;BME280;62987;52.382;9.752;2023-12-20T09:39:21;100217.22;;;9.67;100.00
72560;BME280;62987;52.382;9.752;2023-12-20T09:41:58;100219.25;;;9.80;100.00
72560;BME280;62987;52.382;9.752;2023-12-20T09:44:28;100220.63;;;9.70;100.00
72560;BME280;62987;52.382;9.752;2023-12-20T09:46:57;100229.88;;;9.80;100.00
72560;BME280;62987;52.382;9.752;2023-12-20T09:49:27;100231.19;;;9.72;100.00
72560;BME280;62987;52.382;9.752;2023-12-20T09:51:56;100217.41;;;9.63;100.00
72560;BME280;62987;52.382;9.752;2023-12-20T09:55:07;100217.41;;;9.82;100.00
72560;BME280;62987;52.382;9.752;2023-12-20T09:57:37;100199.88;;;9.97;100.00
72560;BME280;62987;52.382;9.752;2023-12-20T10:00:06;100197.34;;;10.13;100.00
72560;BME280;62987;52.382;9.752;2023-12-20T10:02:39;100198.28;;;9.93;100.00
72560;BME280;62987;52.382;9.752;2023-12-20T10:05:18;100191.38;;;10.08;100.00
72560;BME280;62987;52.382;9.752;2023-12-20T10:07:49;100185.09;;;9.73;100.00
72560;BME280;62987;52.382;9.752;2023-12-20T10:10:20;100186.63;;;10.50;100.00
72560;BME280;62987;52.382;9.752;2023-12-20T10:13:02;100189.47;;;10.47;100.00
72560;BME280;62987;52.382;9.752;2023-12-20T10:15:32;100199.06;;;10.32;100.00
72560;BME280;62987;52.382;9.752;2023-12-20T10:18:01;100190.25;;;9.94;100.00
72560;BME280;62987;52.382;9.752;2023-12-20T10:20:30;100182.84;;;10.20;100.00
72560;BME280;62987;52.382;9.752;2023-12-20T10:23:00;100187.56;;;10.32;100.00
72560;BME280;62987;52.382;9.752;2023-12-20T10:25:30;100183.34;;;10.09;100.00
72560;BME280;62987;52.382;9.752;2023-12-20T10:28:10;100178.66;;;10.50;100.00
72560;BME280;62987;52.382;9.752;2023-12-20T10:30:41;100195.50;;;9.96;100.00
72560;BME280;62987;52.382;9.752;2023-12-20T10:33:10;100183.06;;;10.15;100.00
72560;BME280;62987;52.382;9.752;2023-12-20T10:35:39;100178.72;;;10.13;100.00
72560;BME280;62987;52.382;9.752;2023-12-20T10:38:14;100173.00;;;10.22;100.00
72560;BME280;62987;52.382;9.752;2023-12-20T10:40:45;100174.09;;;10.18;100.00
72560;BME280;62987;52.382;9.752;2023-12-20T10:43:14;100179.13;;;10.24;100.00
72560;BME280;62987;52.382;9.752;2023-12-20T10:45:43;100168.50;;;10.24;100.00
72560;BME280;62987;52.382;9.752;2023-12-20T10:48:12;100171.59;;;10.32;100.00
72560;BME280;62987;52.382;9.752;2023-12-20T10:50:41;100175.16;;;10.14;100.00
72560;BME280;62987;52.382;9.752;2023-12-20T10:53:10;100178.94;;;9.91;100.00
72560;BME280;62987;52.382;9.752;2023-12-20T10:55:42;100182.72;;;10.23;100.00
72560;BME280;62987;52.382;9.752;2023-12-20T10:58:13;100167.41;;;10.09;100.00
72560;BME280;62987;52.382;9.752;2023-12-20T11:00:43;100163.44;;;10.54;100.00
72560;BME280;62987;52.382;9.752;2023-12-20T11:03:14;100170.69;;;10.33;100.00
72560;BME280;62987;52.382;9.752;2023-12-20T11:05:50;100170.59;;;10.17;100.00
72560;BME280;62987;52.382;9.752;2023-12-20T11:08:26;100169.13;;;10.10;100.00
72560;BME280;62987;52.382;9.752;2023-12-20T11:10:59;100163.25;;;10.03;100.00
72560;BME280;62987;52.382;9.752;2023-12-20T11:13:36;100166.03;;;10.00;100.00
72560;BME280;62987;52.382;9.752;2023-12-20T11:16:06;100167.50;;;9.89;100.00
72560;BME280;62987;52.382;9.752;2023-12-20T11:18:36;100160.25;;;9.55;100.00
72560;BME280;62987;52.382;9.752;2023-12-20T11:21:05;100149.91;;;9.86;100.00
72560;BME280;62987;52.382;9.752;2023-12-20T11:23:33;100156.00;;;9.88;100.00
72560;BME280;62987;52.382;9.752;2023-12-20T11:26:03;100155.59;;;9.97;100.00
72560;BME280;62987;52.382;9.752;2023-12-20T11:28:33;100171.53;;;9.97;100.00
72560;BME280;62987;52.382;9.752;2023-12-20T11:31:02;100148.34;;;9.82;100.00
72560;BME280;62987;52.382;9.752;2023-12-20T11:33:35;100154.22;;;9.89;100.00
72560;BME280;62987;52.382;9.752;2023-12-20T11:36:13;100174.84;;;9.65;100.00
72560;BME280;62987;52.382;9.752;2023-12-20T11:38:53;100190.84;;;9.82;100.00
72560;BME280;62987;52.382;9.752;2023-12-20T11:41:25;100181.16;;;10.36;100.00
72560;BME280;62987;52.382;9.752;2023-12-20T11:43:55;100201.38;;;10.02;100.00
72560;BME280;62987;52.382;9.752;2023-12-20T11:46:25;100214.50;;;10.06;100.00
72560;BME280;62987;52.382;9.752;2023-12-20T11:48:54;100207.56;;;10.03;100.00
72560;BME280;62987;52.382;9.752;2023-12-20T11:51:23;100223.00;;;9.76;100.00
72560;BME280;62987;52.382;9.752;2023-12-20T11:53:54;100206.91;;;9.79;100.00
72560;BME280;62987;52.382;9.752;2023-12-20T11:56:23;100215.69;;;15.30;100.00
72560;BME280;62987;52.382;9.752;2023-12-20T11:58:52;100177.84;;;13.48;100.00
72560;BME280;62987;52.382;9.752;2023-12-20T12:01:24;100167.16;;;13.89;100.00
72560;BME280;62987;52.382;9.752;2023-12-20T12:04:02;100164.94;;;14.10;100.00
72560;BME280;62987;52.382;9.752;2023-12-20T12:06:32;100152.34;;;13.42;100.00
72560;BME280;62987;52.382;9.752;2023-12-20T12:09:00;100151.69;;;13.25;100.00
72560;BME280;62987;52.382;9.752;2023-12-20T12:11:31;100142.91;;;13.37;100.00
72560;BME280;62987;52.382;9.752;2023-12-20T12:13:59;100142.88;;;13.23;100.00
72560;BME280;62987;52.382;9.752;2023-12-20T12:16:30;100147.34;;;13.08;100.00
72560;BME280;62987;52.382;9.752;2023-12-20T12:18:59;100131.28;;;12.79;100.00
72560;BME280;62987;52.382;9.752;2023-12-20T12:21:27;100139.66;;;13.17;100.00
72560;BME280;62987;52.382;9.752;2023-12-20T12:24:07;100138.03;;;13.43;100.00
72560;BME280;62987;52.382;9.752;2023-12-20T12:26:35;100143.41;;;12.85;100.00
72560;BME280;62987;52.382;9.752;2023-12-20T12:29:07;100153.66;;;12.77;100.00
72560;BME280;62987;52.382;9.752;2023-12-20T12:31:38;100140.53;;;13.32;100.00
72560;BME280;62987;52.382;9.752;2023-12-20T12:34:07;100136.69;;;13.50;100.00
72560;BME280;62987;52.382;9.752;2023-12-20T12:36:36;100136.59;;;13.38;100.00
72560;BME280;62987;52.382;9.752;2023-12-20T12:39:05;100147.69;;;12.88;100.00
72560;BME280;62987;52.382;9.752;2023-12-20T12:41:33;100140.03;;;13.26;100.00
72560;BME280;62987;52.382;9.752;2023-12-20T12:44:01;100143.09;;;12.16;100.00
72560;BME280;62987;52.382;9.752;2023-12-20T12:46:45;100139.81;;;13.00;100.00
72560;BME280;62987;52.382;9.752;2023-12-20T12:49:13;100137.66;;;12.77;100.00
72560;BME280;62987;52.382;9.752;2023-12-20T12:51:42;100147.41;;;12.92;100.00
72560;BME280;62987;52.382;9.752;2023-12-20T12:54:12;100127.81;;;13.07;100.00
72560;BME280;62987;52.382;9.752;2023-12-20T12:56:43;100134.13;;;13.20;100.00
72560;BME280;62987;52.382;9.752;2023-12-20T12:59:11;100134.31;;;13.17;100.00
72560;BME280;62987;52.382;9.752;2023-12-20T13:01:40;100129.97;;;12.87;100.00
72560;BME280;62987;52.382;9.752;2023-12-20T13:04:10;100126.66;;;13.11;100.00